createdAt,value
2022-12-25T00:01:17.670Z,97168.66
2022-12-25T00:05:17.910Z,97164.72
2022-12-25T00:09:18.050Z,97168.13
2022-12-25T00:13:18.156Z,97149.91
2022-12-25T00:17:20.801Z,97175.25
2022-12-25T00:21:21.896Z,97172.09
2022-12-25T00:25:22.118Z,97164.03
2022-12-25T00:29:22.443Z,97162.44
2022-12-25T00:33:26.223Z,97158.66
2022-12-25T00:37:26.434Z,97155.56
2022-12-25T00:41:39.774Z,97151.84
2022-12-25T00:45:40.120Z,97154.25
2022-12-25T00:49:43.012Z,97165.47
2022-12-25T00:53:43.046Z,97170.63
2022-12-25T00:57:43.082Z,97178.97
2022-12-25T01:01:43.806Z,97185.31
2022-12-25T01:05:56.284Z,97165.56
2022-12-25T01:10:20.532Z,97167.13
2022-12-25T01:14:20.708Z,97153.44
2022-12-25T01:18:20.991Z,97182.66
2022-12-25T01:22:23.629Z,97178.25
2022-12-25T01:26:26.589Z,97190.72
2022-12-25T01:30:26.693Z,97201.97
2022-12-25T01:34:26.831Z,97208.38
2022-12-25T01:38:29.769Z,97184.69
2022-12-25T01:42:30.008Z,97196.97
2022-12-25T01:46:30.433Z,97192.50
2022-12-25T01:50:31.594Z,97167.63
2022-12-25T01:54:42.197Z,97201.41
2022-12-25T01:58:43.065Z,97191.41
2022-12-25T02:02:47.167Z,97194.28
2022-12-25T02:06:47.478Z,97193.13
2022-12-25T02:10:50.625Z,97193.94
2022-12-25T02:14:53.074Z,97200.63
2022-12-25T02:19:00.723Z,97186.84
2022-12-25T02:23:26.244Z,97171.44
2022-12-25T02:32:08.434Z,97178.06
2022-12-25T02:36:18.770Z,97169.28
2022-12-25T02:40:25.386Z,97173.78
2022-12-25T02:44:41.022Z,97184.91
2022-12-25T02:49:06.866Z,97188.03
2022-12-25T02:53:22.061Z,97172.88
2022-12-25T02:57:40.723Z,97188.69
2022-12-25T03:01:54.990Z,97177.56
2022-12-25T03:06:17.223Z,97184.19
2022-12-25T03:10:31.554Z,97189.50
2022-12-25T03:14:44.704Z,97190.13
2022-12-25T03:18:45.893Z,97184.00
2022-12-25T03:23:02.952Z,97171.53
2022-12-25T03:27:03.446Z,97177.81
2022-12-25T03:31:17.748Z,97155.22
2022-12-25T03:35:27.712Z,97173.81
2022-12-25T03:39:54.400Z,97139.06
2022-12-25T03:44:14.883Z,97162.88
2022-12-25T03:48:28.845Z,97174.47
2022-12-25T03:52:45.169Z,97155.09
2022-12-25T03:57:01.373Z,97176.94
2022-12-25T04:01:13.983Z,97157.00
2022-12-25T04:05:26.559Z,97148.84
2022-12-25T04:09:39.279Z,97155.75
2022-12-25T04:13:54.392Z,97143.53
2022-12-25T04:18:08.155Z,97127.50
2022-12-25T04:22:20.766Z,97145.81
2022-12-25T04:26:33.356Z,97146.72
2022-12-25T04:30:48.616Z,97162.94
2022-12-25T04:35:01.224Z,97167.47
2022-12-25T04:39:01.299Z,97150.47
2022-12-25T04:43:01.335Z,97172.91
2022-12-25T04:47:10.724Z,97178.09
2022-12-25T04:51:18.085Z,97179.78
2022-12-25T04:55:18.938Z,97156.53
2022-12-25T04:59:19.064Z,97186.56
2022-12-25T05:03:21.728Z,97186.09
2022-12-25T05:07:21.953Z,97199.56
2022-12-25T05:11:22.267Z,97198.22
2022-12-25T05:15:22.377Z,97185.94
2022-12-25T05:19:25.040Z,97203.22
2022-12-25T05:23:25.825Z,97196.78
2022-12-25T05:27:25.945Z,97173.47
2022-12-25T05:31:26.225Z,97200.09
2022-12-25T05:35:29.028Z,97181.78
2022-12-25T05:39:29.257Z,97196.59
2022-12-25T05:43:29.759Z,97192.25
2022-12-25T05:47:29.913Z,97179.19
2022-12-25T05:51:33.435Z,97178.19
2022-12-25T05:55:33.508Z,97173.69
2022-12-25T05:59:35.041Z,97172.66
2022-12-25T06:03:35.153Z,97183.09
2022-12-25T06:07:37.969Z,97181.28
2022-12-25T06:11:38.158Z,97176.41
2022-12-25T06:15:41.443Z,97178.09
2022-12-25T06:19:41.875Z,97181.50
2022-12-25T06:23:45.614Z,97185.78
2022-12-25T06:27:46.079Z,97184.34
2022-12-25T06:31:46.425Z,97189.31
2022-12-25T06:35:46.559Z,97187.03
2022-12-25T06:39:50.004Z,97182.84
2022-12-25T06:43:52.989Z,97193.03
2022-12-25T06:47:53.072Z,97122.78
2022-12-25T06:51:53.178Z,97202.78
2022-12-25T06:55:56.150Z,97194.31
2022-12-25T06:59:56.352Z,97186.78
2022-12-25T07:04:01.457Z,97193.09
2022-12-25T07:08:01.582Z,97201.25
2022-12-25T07:12:10.927Z,97196.72
2022-12-25T07:16:11.488Z,97203.84
2022-12-25T07:20:12.777Z,97187.38
2022-12-25T07:24:13.155Z,97187.28
2022-12-25T07:28:15.874Z,97196.34
2022-12-25T07:32:15.965Z,97204.25
2022-12-25T07:36:17.853Z,97218.81
2022-12-25T07:40:18.364Z,97194.69
2022-12-25T07:44:21.598Z,97214.09
2022-12-25T07:48:21.723Z,97216.06
2022-12-25T07:52:21.850Z,97218.66
2022-12-25T07:56:23.278Z,97220.31
2022-12-25T08:00:29.788Z,97200.50
2022-12-25T08:04:29.880Z,97188.03
2022-12-25T08:08:30.072Z,97186.75
2022-12-25T08:12:30.151Z,97201.91
2022-12-25T08:16:32.916Z,97199.63
2022-12-25T08:20:32.970Z,97169.81
2022-12-25T08:24:33.315Z,97198.47
2022-12-25T08:28:33.921Z,97192.41
2022-12-25T08:32:38.090Z,97178.19
2022-12-25T08:36:38.652Z,97185.31
2022-12-25T08:40:38.959Z,97183.38
2022-12-25T08:44:39.240Z,97179.31
2022-12-25T08:48:45.242Z,97181.41
2022-12-25T08:52:45.373Z,97158.78
2022-12-25T08:56:45.562Z,97150.25
2022-12-25T09:00:45.850Z,97162.84
2022-12-25T09:04:48.717Z,97178.38
2022-12-25T09:08:49.966Z,97176.19
2022-12-25T09:12:50.304Z,97186.53
2022-12-25T09:16:52.751Z,97172.78
2022-12-25T09:21:04.335Z,97182.06
2022-12-25T09:25:04.564Z,97186.38
2022-12-25T09:29:04.689Z,97185.19
2022-12-25T09:33:04.852Z,97175.19
2022-12-25T09:37:07.610Z,97141.22
2022-12-25T09:41:19.763Z,97164.38
2022-12-25T09:45:28.291Z,97181.03
2022-12-25T09:49:41.847Z,97168.75
2022-12-25T09:53:52.895Z,97165.22
2022-12-25T09:57:57.097Z,97156.78
2022-12-25T10:02:52.120Z,97156.72
2022-12-25T10:07:14.478Z,97122.44
2022-12-25T10:11:39.807Z,97147.81
2022-12-25T10:15:58.992Z,97146.78
2022-12-25T10:20:13.296Z,97103.13
2022-12-25T10:24:32.199Z,97123.25
2022-12-25T10:28:43.360Z,97043.69
2022-12-25T10:32:43.778Z,97089.91
2022-12-25T10:36:46.509Z,97088.63
2022-12-25T10:41:08.064Z,97076.13
2022-12-25T10:45:13.027Z,97038.81
2022-12-25T10:49:19.317Z,97016.53
2022-12-25T10:53:27.339Z,97039.94
2022-12-25T10:57:31.856Z,97049.66
2022-12-25T11:01:36.249Z,97053.59
2022-12-25T11:05:39.947Z,96991.41
2022-12-25T11:09:40.822Z,97025.38
2022-12-25T11:13:52.572Z,97047.56
2022-12-25T11:17:55.671Z,97027.50
2022-12-25T11:21:58.633Z,97058.84
2022-12-25T11:26:00.603Z,97076.91
2022-12-25T11:30:05.231Z,97044.63
2022-12-25T11:34:22.290Z,97057.59
2022-12-25T11:38:23.872Z,97049.28
2022-12-25T11:42:29.950Z,97055.72
2022-12-25T11:46:41.173Z,97044.22
2022-12-25T11:50:49.694Z,97027.34
2022-12-25T11:54:59.651Z,97038.31
2022-12-25T11:59:16.396Z,97026.84
2022-12-25T12:03:27.132Z,97022.00
2022-12-25T12:07:35.469Z,96990.84
2022-12-25T12:11:46.519Z,96991.13
2022-12-25T12:15:50.036Z,96994.16
2022-12-25T12:19:50.567Z,96990.16
2022-12-25T12:23:59.853Z,96980.66
2022-12-25T12:28:05.814Z,96962.84
2022-12-25T12:32:22.980Z,96953.00
2022-12-25T12:36:35.626Z,96937.34
2022-12-25T12:40:44.538Z,96950.53
2022-12-25T12:44:45.691Z,96908.47
2022-12-25T12:48:48.881Z,96918.06
2022-12-25T12:52:49.254Z,96923.78
2022-12-25T12:57:03.115Z,96930.03
2022-12-25T13:01:26.635Z,96919.81
2022-12-25T13:05:41.480Z,96928.72
2022-12-25T13:10:03.898Z,96919.25
2022-12-25T13:14:07.941Z,96905.28
2022-12-25T13:18:15.098Z,96929.78
2022-12-25T13:22:28.454Z,96923.97
2022-12-25T13:26:29.556Z,96919.09
2022-12-25T13:30:32.672Z,96927.69
2022-12-25T13:34:36.928Z,96924.97
2022-12-25T13:38:37.478Z,96924.28
2022-12-25T13:42:40.970Z,96906.31
2022-12-25T13:46:44.580Z,96923.91
2022-12-25T13:50:48.525Z,96900.59
2022-12-25T13:55:03.953Z,96891.56
2022-12-25T13:59:04.946Z,96893.00
2022-12-25T14:03:10.192Z,96884.16
2022-12-25T14:07:14.648Z,96880.16
2022-12-25T14:11:20.605Z,96883.34
2022-12-25T14:15:25.915Z,96895.72
2022-12-25T14:19:34.647Z,96884.69
2022-12-25T14:23:45.774Z,96870.53
2022-12-25T14:27:52.848Z,96878.00
2022-12-25T14:31:53.267Z,96860.59
2022-12-25T14:35:56.626Z,96888.47
2022-12-25T14:40:03.177Z,96893.56
2022-12-25T14:44:06.895Z,96913.63
2022-12-25T14:48:24.696Z,96906.91
2022-12-25T14:52:45.104Z,96926.19
2022-12-25T14:56:52.001Z,96919.78
2022-12-25T15:01:00.462Z,96914.38
2022-12-25T15:05:00.830Z,96913.56
2022-12-25T15:09:06.788Z,96914.63
2022-12-25T15:13:07.175Z,96918.28
2022-12-25T15:17:07.584Z,96902.81
2022-12-25T15:21:08.443Z,96908.41
2022-12-25T15:25:15.166Z,96888.59
2022-12-25T15:29:15.234Z,96825.47
2022-12-25T15:33:18.648Z,96853.91
2022-12-25T15:37:19.187Z,96856.59
2022-12-25T15:41:39.793Z,96839.44
2022-12-25T15:45:41.229Z,96880.09
2022-12-25T15:49:42.200Z,96879.78
2022-12-25T15:53:42.322Z,96875.81
2022-12-25T15:57:48.629Z,96854.16
2022-12-25T16:01:53.127Z,96869.38
2022-12-25T16:05:53.360Z,96864.38
2022-12-25T16:09:54.986Z,96878.34
2022-12-25T16:13:57.781Z,96882.97
2022-12-25T16:17:57.973Z,96880.56
2022-12-25T16:21:58.628Z,96885.72
2022-12-25T16:25:58.757Z,96858.13
2022-12-25T16:30:01.551Z,96882.44
2022-12-25T16:34:01.666Z,96886.19
2022-12-25T16:38:02.700Z,96881.94
2022-12-25T16:42:02.754Z,96887.06
2022-12-25T16:46:13.002Z,96898.47
2022-12-25T16:50:14.587Z,96889.97
2022-12-25T16:54:14.695Z,96883.25
2022-12-25T16:58:14.784Z,96872.97
2022-12-25T17:02:21.784Z,96866.00
2022-12-25T17:06:26.889Z,96871.72
2022-12-25T17:10:26.964Z,96844.38
2022-12-25T17:14:27.207Z,96867.81
2022-12-25T17:18:30.022Z,96871.06
2022-12-25T17:22:30.281Z,96833.69
2022-12-25T17:26:31.043Z,96879.13
2022-12-25T17:30:31.128Z,96870.00
2022-12-25T17:34:33.827Z,96876.66
2022-12-25T17:38:35.290Z,96862.56
2022-12-25T17:42:36.016Z,96846.81
2022-12-25T17:46:36.249Z,96848.22
2022-12-25T17:50:41.411Z,96853.50
2022-12-25T17:54:41.869Z,96833.75
2022-12-25T17:58:42.235Z,96829.56
2022-12-25T18:02:43.952Z,96841.78
2022-12-25T18:06:46.824Z,96833.19
2022-12-25T18:10:47.464Z,96820.97
2022-12-25T18:14:47.706Z,96839.19
2022-12-25T18:18:52.288Z,96833.09
2022-12-25T18:22:55.595Z,96822.66
2022-12-25T18:26:55.821Z,96826.34
2022-12-25T18:30:55.937Z,96818.00
2022-12-25T18:34:56.594Z,96823.09
2022-12-25T18:39:00.280Z,96809.16
2022-12-25T18:43:03.481Z,96809.59
2022-12-25T18:47:04.052Z,96802.25
2022-12-25T18:51:08.650Z,96800.69
2022-12-25T18:55:13.185Z,96821.66
2022-12-25T18:59:13.465Z,96774.34
2022-12-25T19:03:13.773Z,96811.44
2022-12-25T19:07:14.609Z,96807.69
2022-12-25T19:11:18.983Z,96820.03
2022-12-25T19:15:19.544Z,96774.97
2022-12-25T19:19:19.734Z,96802.25
2022-12-25T19:23:20.779Z,96808.16
2022-12-25T19:27:23.662Z,96807.94
2022-12-25T19:31:24.983Z,96795.34
2022-12-25T19:35:25.356Z,96825.22
2022-12-25T19:39:25.650Z,96790.06
2022-12-25T19:43:29.131Z,96802.06
2022-12-25T19:47:29.323Z,96771.53
2022-12-25T19:51:33.248Z,96779.66
2022-12-25T19:55:35.219Z,96799.84
2022-12-25T19:59:38.082Z,96802.25
2022-12-25T20:03:45.943Z,96791.28
2022-12-25T20:07:46.624Z,96774.16
2022-12-25T20:11:46.949Z,96768.06
2022-12-25T20:15:49.802Z,96782.00
2022-12-25T20:19:49.959Z,96783.44
2022-12-25T20:23:52.538Z,96805.59
2022-12-25T20:27:52.753Z,96798.53
2022-12-25T20:31:55.612Z,96813.50
2022-12-25T20:35:57.088Z,96824.34
2022-12-25T20:39:57.552Z,96806.66
2022-12-25T20:43:58.118Z,96821.28
2022-12-25T20:48:02.487Z,96847.31
2022-12-25T20:52:05.520Z,96838.59
2022-12-25T20:56:07.214Z,96839.31
2022-12-25T21:00:08.869Z,96826.88
2022-12-25T21:04:16.228Z,96814.72
2022-12-25T21:08:16.809Z,96849.63
2022-12-25T21:12:16.921Z,96844.31
2022-12-25T21:16:21.540Z,96846.69
2022-12-25T21:20:24.312Z,96841.59
2022-12-25T21:24:25.472Z,96830.34
2022-12-25T21:28:27.243Z,96843.75
2022-12-25T21:32:39.826Z,96833.91
2022-12-25T21:36:42.605Z,96848.03
2022-12-25T21:40:43.056Z,96837.78
2022-12-25T21:44:43.229Z,96833.16
2022-12-25T21:48:44.983Z,96854.56
2022-12-25T21:52:47.967Z,96851.09
2022-12-25T21:56:52.218Z,96847.09
2022-12-25T22:00:52.389Z,96834.09
2022-12-25T22:04:52.596Z,96836.38
2022-12-25T22:08:53.249Z,96829.38
2022-12-25T22:13:06.974Z,96825.91
2022-12-25T22:17:20.418Z,96784.97
2022-12-25T22:21:22.210Z,96833.63
2022-12-25T22:25:26.191Z,96844.69
2022-12-25T22:29:26.489Z,96844.19
2022-12-25T22:33:28.058Z,96850.13
2022-12-25T22:37:28.218Z,96853.63
2022-12-25T22:41:33.662Z,96853.97
2022-12-25T22:45:33.996Z,96865.00
2022-12-25T22:49:34.429Z,96876.97
2022-12-25T22:53:34.670Z,96872.75
2022-12-25T22:57:38.108Z,96876.34
2022-12-25T23:01:38.395Z,96880.88
2022-12-25T23:05:38.540Z,96879.28
2022-12-25T23:09:38.627Z,96883.47
2022-12-25T23:13:53.793Z,96892.34
2022-12-25T23:18:07.592Z,96892.34
2022-12-25T23:22:20.635Z,96895.56
2022-12-25T23:26:23.667Z,96893.16
2022-12-25T23:30:26.415Z,96889.63
2022-12-25T23:34:27.249Z,96869.50
2022-12-25T23:38:27.432Z,96903.72
2022-12-25T23:42:27.554Z,96905.53
2022-12-25T23:46:30.227Z,96892.31
2022-12-25T23:50:30.296Z,96893.63
2022-12-25T23:54:33.249Z,96897.34
2022-12-25T23:58:33.639Z,96901.34
